Terminal Aerodrome Forecast
Issued by NWS Memphis, TN

Home | Current Version | Previous Version | Text Only | Print | Product List | Glossary On
Versions: 1 2 3 4 5 6 7 8 9 10 11 12 13 14 15 16 17 18 19 20 21 22 23 24
000
FTUS44 KMEG 230900 AAA
TAFMEM
TAF AMD
KMEM 230900Z 2309/2406 06006KT P6SM SCT250
     FM231200 09004KT P6SM FEW150 BKN250
     FM231700 01006KT P6SM BKN150 BKN250
     FM240200 00000KT P6SM SCT150=

USA.gov is the U.S. government's official web portal to all federal, state and local government web resources and services.